createdAt,value
2017-05-09T00:00:40.054Z,102541.13
2017-05-09T00:03:05.887Z,102546.51
2017-05-09T00:05:31.812Z,102550.55
2017-05-09T00:07:57.704Z,102544.32
2017-05-09T00:10:23.628Z,102547.10
2017-05-09T00:12:49.519Z,102549.78
2017-05-09T00:15:15.361Z,102551.14
2017-05-09T00:17:41.248Z,102545.35
2017-05-09T00:20:07.859Z,102544.06
2017-05-09T00:22:34.006Z,102536.11
2017-05-09T00:24:59.894Z,102539.22
2017-05-09T00:27:25.783Z,102537.88
2017-05-09T00:29:51.618Z,102543.26
2017-05-09T00:32:17.486Z,102539.31
2017-05-09T00:34:43.463Z,102541.07
2017-05-09T00:37:09.298Z,102537.55
2017-05-09T00:39:35.134Z,102542.95
2017-05-09T00:42:00.973Z,102536.74
2017-05-09T00:44:27.559Z,102534.50
2017-05-09T00:46:53.485Z,102535.05
2017-05-09T00:49:19.329Z,102535.48
2017-05-09T00:51:45.335Z,102536.41
2017-05-09T00:54:11.179Z,102531.52
2017-05-09T00:56:37.033Z,102526.67
2017-05-09T00:59:02.907Z,102529.30
2017-05-09T01:01:28.746Z,102530.20
2017-05-09T01:03:54.670Z,102526.23
2017-05-09T01:06:21.265Z,102528.04
2017-05-09T01:08:47.112Z,102528.53
2017-05-09T01:11:12.992Z,102528.55
2017-05-09T01:13:38.880Z,102525.48
2017-05-09T01:16:05.626Z,102525.05
2017-05-09T01:18:31.492Z,102526.83
2017-05-09T01:20:57.317Z,102524.20
2017-05-09T01:23:23.163Z,102518.00
2017-05-09T01:25:49.006Z,102516.67
2017-05-09T01:28:15.000Z,102519.81
2017-05-09T01:30:40.915Z,102519.38
2017-05-09T01:33:06.730Z,102518.91
2017-05-09T01:35:32.619Z,102509.13
2017-05-09T01:37:58.471Z,102506.05
2017-05-09T01:40:24.397Z,102506.07
2017-05-09T01:42:50.257Z,102510.14
2017-05-09T01:45:16.119Z,102500.41
2017-05-09T01:47:41.967Z,102503.03
2017-05-09T01:50:09.304Z,102501.23
2017-05-09T01:52:35.255Z,102492.38
2017-05-09T01:55:01.122Z,102500.45
2017-05-09T01:57:27.238Z,102498.24
2017-05-09T01:59:53.134Z,102500.92
2017-05-09T02:02:19.003Z,102502.70
2017-05-09T02:04:44.946Z,102500.45
2017-05-09T02:07:10.782Z,102501.89
2017-05-09T02:09:36.694Z,102496.56
2017-05-09T02:12:02.541Z,102499.27
2017-05-09T02:14:28.379Z,102497.52
2017-05-09T02:16:54.319Z,102502.92
2017-05-09T02:19:20.162Z,102500.22
2017-05-09T02:21:46.039Z,102493.58
2017-05-09T02:24:11.912Z,102492.27
2017-05-09T02:26:37.853Z,102487.81
2017-05-09T02:29:04.520Z,102488.74
2017-05-09T02:31:30.371Z,102495.02
2017-05-09T02:33:56.211Z,102484.77
2017-05-09T02:36:22.101Z,102491.45
2017-05-09T02:38:47.947Z,102489.25
2017-05-09T02:41:13.882Z,102495.06
2017-05-09T02:43:39.762Z,102480.86
2017-05-09T02:46:05.599Z,102480.42
2017-05-09T02:48:31.447Z,102482.21
2017-05-09T02:50:57.289Z,102482.23
2017-05-09T02:53:23.345Z,102475.13
2017-05-09T02:55:49.209Z,102483.11
2017-05-09T02:58:15.908Z,102486.71
2017-05-09T03:00:41.769Z,102485.38
2017-05-09T03:03:07.612Z,102480.51
2017-05-09T03:05:33.545Z,102482.33
2017-05-09T03:07:59.387Z,102474.80
2017-05-09T03:10:25.272Z,102476.59
2017-05-09T03:12:51.884Z,102470.37
2017-05-09T03:15:17.745Z,102470.86
2017-05-09T03:17:43.556Z,102466.38
2017-05-09T03:20:09.403Z,102467.77
2017-05-09T03:22:35.377Z,102466.02
2017-05-09T03:25:01.254Z,102462.47
2017-05-09T03:27:27.174Z,102467.41
2017-05-09T03:29:53.022Z,102460.74
2017-05-09T03:32:18.876Z,102466.55
2017-05-09T03:34:44.867Z,102463.48
2017-05-09T03:37:10.706Z,102453.73
2017-05-09T03:39:36.554Z,102454.19
2017-05-09T03:42:02.409Z,102454.19
2017-05-09T03:44:28.322Z,102459.55
2017-05-09T03:46:54.257Z,102452.03
2017-05-09T03:49:20.094Z,102454.24
2017-05-09T03:51:45.961Z,102449.36
2017-05-09T03:54:11.833Z,102451.16
2017-05-09T03:56:37.635Z,102443.18
2017-05-09T03:59:03.561Z,102443.16
2017-05-09T04:01:29.395Z,102444.54
2017-05-09T04:03:55.267Z,102442.81
2017-05-09T04:06:21.119Z,102443.72
2017-05-09T04:08:47.004Z,102443.69
2017-05-09T04:11:12.950Z,102444.16
2017-05-09T04:13:38.803Z,102443.37
2017-05-09T04:16:04.657Z,102451.79
2017-05-09T04:18:30.495Z,102452.28
2017-05-09T04:20:56.380Z,102451.84
2017-05-09T04:23:22.338Z,102450.52
2017-05-09T04:25:48.184Z,102447.80
2017-05-09T04:28:14.038Z,102456.53
2017-05-09T04:30:39.901Z,102449.53
2017-05-09T04:33:05.705Z,102451.86
2017-05-09T04:35:31.648Z,102453.19
2017-05-09T04:37:57.519Z,102452.61
2017-05-09T04:40:23.423Z,102452.12
2017-05-09T04:42:49.330Z,102452.06
2017-05-09T04:45:15.238Z,102448.48
2017-05-09T04:47:41.075Z,102444.09
2017-05-09T04:50:06.940Z,102439.67
2017-05-09T04:52:32.756Z,102434.78
2017-05-09T04:54:59.370Z,102431.14
2017-05-09T04:57:25.382Z,102429.18
2017-05-09T04:59:51.230Z,102435.41
2017-05-09T05:02:17.112Z,102431.55
2017-05-09T05:04:42.970Z,102430.00
2017-05-09T05:07:08.794Z,102427.13
2017-05-09T05:09:34.741Z,102426.92
2017-05-09T05:12:00.598Z,102431.16
2017-05-09T05:14:26.475Z,102429.14
2017-05-09T05:16:52.309Z,102420.62
2017-05-09T05:19:18.148Z,102421.87
2017-05-09T05:21:44.094Z,102420.37
2017-05-09T05:24:09.943Z,102416.27
2017-05-09T05:26:35.783Z,102419.36
2017-05-09T05:29:01.639Z,102410.88
2017-05-09T05:31:27.524Z,102415.31
2017-05-09T05:33:53.501Z,102413.09
2017-05-09T05:36:19.338Z,102413.56
2017-05-09T05:38:45.194Z,102415.81
2017-05-09T05:41:11.042Z,102411.34
2017-05-09T05:43:36.896Z,102411.78
2017-05-09T05:46:02.870Z,102412.69
2017-05-09T05:48:28.709Z,102413.56
2017-05-09T05:50:54.598Z,102415.81
2017-05-09T05:53:20.502Z,102416.69
2017-05-09T05:55:46.349Z,102413.06
2017-05-09T05:58:12.602Z,102417.12
2017-05-09T06:00:38.493Z,102417.09
2017-05-09T06:03:04.347Z,102416.15
2017-05-09T06:05:30.237Z,102409.44
2017-05-09T06:07:56.101Z,102415.50
2017-05-09T06:10:22.102Z,102414.38
2017-05-09T06:12:48.002Z,102419.31
2017-05-09T06:15:13.850Z,102421.65
2017-05-09T06:17:39.698Z,102420.37
2017-05-09T06:20:05.571Z,102413.75
2017-05-09T06:22:31.435Z,102420.49
2017-05-09T06:24:57.384Z,102420.67
2017-05-09T06:27:23.226Z,102421.80
2017-05-09T06:29:49.074Z,102417.59
2017-05-09T06:32:14.942Z,102422.95
2017-05-09T06:34:40.802Z,102417.67
2017-05-09T06:37:06.766Z,102411.38
2017-05-09T06:39:32.662Z,102419.08
2017-05-09T06:41:58.553Z,102417.36
2017-05-09T06:44:24.390Z,102410.22
2017-05-09T06:46:50.258Z,102408.16
2017-05-09T06:49:16.969Z,102412.61
2017-05-09T06:51:43.593Z,102408.16
2017-05-09T06:54:09.450Z,102405.64
2017-05-09T06:56:35.342Z,102407.95
2017-05-09T06:59:01.198Z,102402.47
2017-05-09T07:01:27.211Z,102398.02
2017-05-09T07:03:53.001Z,102396.72
2017-05-09T07:06:18.853Z,102395.91
2017-05-09T07:08:44.760Z,102389.20
2017-05-09T07:11:10.640Z,102387.81
2017-05-09T07:13:36.626Z,102391.81
2017-05-09T07:16:02.459Z,102382.78
2017-05-09T07:18:28.325Z,102392.07
2017-05-09T07:20:54.178Z,102387.13
2017-05-09T07:23:20.105Z,102388.49
2017-05-09T07:25:46.048Z,102386.30
2017-05-09T07:28:11.901Z,102384.55
2017-05-09T07:30:37.778Z,102374.74
2017-05-09T07:33:03.689Z,102372.56
2017-05-09T07:35:29.498Z,102373.98
2017-05-09T07:37:56.170Z,102374.83
2017-05-09T07:40:22.019Z,102369.50
2017-05-09T07:42:47.875Z,102367.28
2017-05-09T07:45:13.811Z,102363.64
2017-05-09T07:47:39.700Z,102363.67
2017-05-09T07:50:05.707Z,102365.05
2017-05-09T07:52:32.032Z,102364.13
2017-05-09T07:54:57.886Z,102365.04
2017-05-09T07:57:23.779Z,102363.27
2017-05-09T07:59:49.675Z,102358.81
2017-05-09T08:02:15.596Z,102354.90
2017-05-09T08:04:41.478Z,102351.44
2017-05-09T08:07:07.385Z,102343.02
2017-05-09T08:09:33.209Z,102352.95
2017-05-09T08:11:59.056Z,102347.68
2017-05-09T08:14:25.018Z,102349.05
2017-05-09T08:16:50.881Z,102347.80
2017-05-09T08:19:17.513Z,102342.47
2017-05-09T08:21:43.314Z,102346.48
2017-05-09T08:24:09.162Z,102347.73
2017-05-09T08:26:35.107Z,102343.11
2017-05-09T08:29:00.954Z,102339.12
2017-05-09T08:31:26.853Z,102337.72
2017-05-09T08:33:52.756Z,102341.77
2017-05-09T08:36:18.614Z,102340.89
2017-05-09T08:38:44.549Z,102332.42
2017-05-09T08:41:10.451Z,102336.94
2017-05-09T08:43:36.295Z,102336.97
2017-05-09T08:46:02.140Z,102336.97
2017-05-09T08:48:27.997Z,102336.15
2017-05-09T08:50:53.983Z,102330.80
2017-05-09T08:53:19.876Z,102327.70
2017-05-09T08:55:45.727Z,102318.33
2017-05-09T08:58:12.327Z,102323.66
2017-05-09T09:00:38.187Z,102325.00
2017-05-09T09:03:04.915Z,102322.38
2017-05-09T09:05:30.768Z,102322.88
2017-05-09T09:07:56.610Z,102322.03
2017-05-09T09:10:22.465Z,102317.58
2017-05-09T09:12:49.123Z,102319.41
2017-05-09T09:15:15.070Z,102319.43
2017-05-09T09:17:40.963Z,102319.46
2017-05-09T09:20:06.837Z,102321.23
2017-05-09T09:22:32.773Z,102318.15
2017-05-09T09:24:58.627Z,102325.25
2017-05-09T09:27:24.577Z,102320.02
2017-05-09T09:29:50.423Z,102313.73
2017-05-09T09:32:16.275Z,102319.52
2017-05-09T09:34:42.145Z,102316.41
2017-05-09T09:37:08.044Z,102316.00
2017-05-09T09:39:34.704Z,102311.13
2017-05-09T09:42:00.578Z,102312.56
2017-05-09T09:44:26.424Z,102313.88
2017-05-09T09:46:52.287Z,102304.06
2017-05-09T09:49:18.136Z,102306.68
2017-05-09T09:51:44.160Z,102306.16
2017-05-09T09:54:10.048Z,102303.45
2017-05-09T09:56:35.917Z,102308.28
2017-05-09T09:59:01.767Z,102301.55
2017-05-09T10:01:27.679Z,102300.66
2017-05-09T10:03:53.641Z,102295.27
2017-05-09T10:06:19.513Z,102305.43
2017-05-09T10:08:45.375Z,102300.52
2017-05-09T10:11:11.219Z,102296.55
2017-05-09T10:13:37.100Z,102301.85
2017-05-09T10:16:03.062Z,102299.58
2017-05-09T10:18:28.902Z,102297.72
2017-05-09T10:20:54.803Z,102303.48
2017-05-09T10:23:20.708Z,102296.31
2017-05-09T10:25:46.612Z,102298.53
2017-05-09T10:28:12.511Z,102297.13
2017-05-09T10:30:38.373Z,102292.67
2017-05-09T10:33:04.219Z,102287.31
2017-05-09T10:35:30.091Z,102285.95
2017-05-09T10:37:56.117Z,102284.14
2017-05-09T10:40:22.000Z,102284.11
2017-05-09T10:42:47.855Z,102278.78
2017-05-09T10:45:13.711Z,102274.77
2017-05-09T10:47:39.551Z,102270.28
2017-05-09T10:50:05.428Z,102277.41
2017-05-09T10:52:31.276Z,102265.77
2017-05-09T10:54:57.183Z,102267.05
2017-05-09T10:57:23.091Z,102254.52
2017-05-09T10:59:48.944Z,102251.41
2017-05-09T11:02:14.875Z,102252.75
2017-05-09T11:04:40.780Z,102236.08
2017-05-09T11:07:06.654Z,102239.48
2017-05-09T11:09:32.522Z,102240.84
2017-05-09T11:11:58.378Z,102232.00
2017-05-09T11:14:24.286Z,102230.19
2017-05-09T11:16:50.167Z,102220.34
2017-05-09T11:19:16.018Z,102223.87
2017-05-09T11:21:41.874Z,102222.56
2017-05-09T11:24:07.729Z,102224.83
2017-05-09T11:26:33.570Z,102216.77
2017-05-09T11:28:59.435Z,102218.08
2017-05-09T11:31:26.020Z,102212.66
2017-05-09T11:33:51.895Z,102220.69
2017-05-09T11:36:18.499Z,102216.20
2017-05-09T11:38:44.383Z,102211.25
2017-05-09T11:41:10.258Z,102214.40
2017-05-09T11:43:36.158Z,102209.48
2017-05-09T11:46:02.005Z,102209.48
2017-05-09T11:48:28.611Z,102206.39
2017-05-09T11:50:54.471Z,102194.77
2017-05-09T11:53:20.326Z,102196.55
2017-05-09T11:55:46.211Z,102194.80
2017-05-09T11:58:12.066Z,102189.41
2017-05-09T12:00:37.943Z,102191.59
2017-05-09T12:03:03.810Z,102192.06
2017-05-09T12:05:29.706Z,102188.48
2017-05-09T12:07:55.559Z,102181.31
2017-05-09T12:10:21.408Z,102183.53
2017-05-09T12:12:47.285Z,102180.88
2017-05-09T12:15:13.134Z,102179.11
2017-05-09T12:17:39.002Z,102175.99
2017-05-09T12:20:04.931Z,102170.63
2017-05-09T12:22:30.786Z,102163.50
2017-05-09T12:24:56.640Z,102158.61
2017-05-09T12:27:23.355Z,102156.74
2017-05-09T12:29:49.251Z,102154.94
2017-05-09T12:32:15.179Z,102150.45
2017-05-09T12:34:41.298Z,102152.22
2017-05-09T12:37:07.160Z,102141.97
2017-05-09T12:39:33.022Z,102136.21
2017-05-09T12:41:59.033Z,102134.38
2017-05-09T12:44:24.888Z,102137.08
2017-05-09T12:46:50.746Z,102130.89
2017-05-09T12:49:16.953Z,102130.02
2017-05-09T12:51:42.992Z,102122.38
2017-05-09T12:54:08.838Z,102123.28
2017-05-09T12:56:34.850Z,102120.14
2017-05-09T12:59:00.752Z,102115.16
2017-05-09T13:01:26.539Z,102106.72
2017-05-09T13:03:52.518Z,102106.78
2017-05-09T13:06:18.399Z,102100.98
2017-05-09T13:08:44.263Z,102093.41
2017-05-09T13:11:10.199Z,102086.31
2017-05-09T13:13:36.271Z,102086.28
2017-05-09T13:16:02.505Z,102080.45
2017-05-09T13:18:28.494Z,102078.61
2017-05-09T13:20:54.379Z,102075.50
2017-05-09T13:23:20.970Z,102073.69
2017-05-09T13:25:46.974Z,102069.00
2017-05-09T13:28:12.808Z,102064.55
2017-05-09T13:30:38.651Z,102052.99
2017-05-09T13:33:04.698Z,102045.42
2017-05-09T13:35:30.650Z,102045.77
2017-05-09T13:37:56.528Z,102043.09
2017-05-09T13:40:22.536Z,102041.71
2017-05-09T13:42:48.434Z,102043.09
2017-05-09T13:45:14.285Z,102035.11
2017-05-09T13:47:40.232Z,102033.34
2017-05-09T13:50:06.165Z,102025.27
2017-05-09T13:52:32.033Z,102020.75
2017-05-09T13:54:57.916Z,102020.75
2017-05-09T13:57:23.788Z,102020.78
2017-05-09T13:59:49.743Z,102020.72
2017-05-09T14:02:16.349Z,102013.82
2017-05-09T14:04:42.190Z,102008.56
2017-05-09T14:07:09.021Z,102011.28
2017-05-09T14:09:34.882Z,102004.21
2017-05-09T14:12:00.739Z,102001.77
2017-05-09T14:14:26.679Z,101997.34
2017-05-09T14:16:52.592Z,101997.08
2017-05-09T14:19:18.500Z,101989.07
2017-05-09T14:21:44.399Z,101989.84
2017-05-09T14:24:10.265Z,101985.79
2017-05-09T14:26:36.303Z,101989.70
2017-05-09T14:29:02.234Z,101979.69
2017-05-09T14:31:28.122Z,101977.09
2017-05-09T14:33:54.033Z,101972.27
2017-05-09T14:36:19.924Z,101960.68
2017-05-09T14:38:45.874Z,101965.83
2017-05-09T14:41:11.716Z,101970.51
2017-05-09T14:43:37.598Z,101969.61
2017-05-09T14:46:03.445Z,101961.56
2017-05-09T14:48:29.309Z,101955.95
2017-05-09T14:50:55.272Z,101957.61
2017-05-09T14:53:21.243Z,101950.17
2017-05-09T14:55:47.135Z,101948.95
2017-05-09T14:58:12.998Z,101946.41
2017-05-09T15:00:38.854Z,101941.91
2017-05-09T15:03:05.019Z,101941.44
2017-05-09T15:05:30.910Z,101939.64
2017-05-09T15:07:57.213Z,101938.63
2017-05-09T15:10:23.018Z,101941.55
2017-05-09T15:12:48.872Z,101937.67
2017-05-09T15:15:14.931Z,101931.05
2017-05-09T15:17:40.787Z,101931.23
2017-05-09T15:20:06.676Z,101927.71
2017-05-09T15:22:32.553Z,101924.67
2017-05-09T15:24:58.480Z,101921.70
2017-05-09T15:27:25.142Z,101919.29
2017-05-09T15:29:51.024Z,101907.81
2017-05-09T15:32:16.996Z,101909.84
2017-05-09T15:34:42.841Z,101904.05
2017-05-09T15:37:08.734Z,101909.11
2017-05-09T15:39:34.759Z,101905.11
2017-05-09T15:42:00.616Z,101907.83
2017-05-09T15:44:26.481Z,101902.28
2017-05-09T15:46:52.411Z,101892.94
2017-05-09T15:49:18.332Z,101888.80
2017-05-09T15:51:44.223Z,101884.53
2017-05-09T15:54:10.086Z,101881.30
2017-05-09T15:56:35.937Z,101884.45
2017-05-09T15:59:01.859Z,101886.11
2017-05-09T16:01:28.458Z,101877.72
2017-05-09T16:03:54.477Z,101876.96
2017-05-09T16:06:20.289Z,101870.25
2017-05-09T16:08:46.137Z,101869.68
2017-05-09T16:11:12.002Z,101866.28
2017-05-09T16:13:37.887Z,101867.35
2017-05-09T16:16:03.894Z,101865.54
2017-05-09T16:18:29.786Z,101857.41
2017-05-09T16:20:55.636Z,101851.09
2017-05-09T16:23:21.521Z,101854.80
2017-05-09T16:25:47.434Z,101846.80
2017-05-09T16:28:13.392Z,101843.75
2017-05-09T16:30:40.035Z,101837.55
2017-05-09T16:33:06.381Z,101840.67
2017-05-09T16:35:32.308Z,101840.28
2017-05-09T16:37:58.187Z,101834.20
2017-05-09T16:40:24.118Z,101832.83
2017-05-09T16:42:50.002Z,101832.59
2017-05-09T16:45:15.996Z,101835.86
2017-05-09T16:47:41.950Z,101832.66
2017-05-09T16:50:07.808Z,101829.78
2017-05-09T16:52:33.707Z,101832.11
2017-05-09T16:54:59.600Z,101835.59
2017-05-09T16:57:26.370Z,101836.50
2017-05-09T16:59:52.958Z,101826.86
2017-05-09T17:02:18.861Z,101829.08
2017-05-09T17:04:45.004Z,101825.69
2017-05-09T17:07:10.861Z,101824.50
2017-05-09T17:09:36.794Z,101820.94
2017-05-09T17:12:02.654Z,101819.25
2017-05-09T17:14:28.506Z,101816.84
2017-05-09T17:16:54.357Z,101811.62
2017-05-09T17:19:20.206Z,101809.77
2017-05-09T17:21:46.195Z,101805.52
2017-05-09T17:24:12.204Z,101804.45
2017-05-09T17:26:38.087Z,101803.27
2017-05-09T17:29:03.984Z,101803.27
2017-05-09T17:31:29.904Z,101805.00
2017-05-09T17:33:55.932Z,101803.30
2017-05-09T17:36:22.043Z,101796.13
2017-05-09T17:38:47.972Z,101797.27
2017-05-09T17:41:13.850Z,101792.57
2017-05-09T17:43:39.754Z,101794.38
2017-05-09T17:46:05.863Z,101791.58
2017-05-09T17:48:32.126Z,101789.72
2017-05-09T17:50:58.007Z,101791.53
2017-05-09T17:53:24.346Z,101791.91
2017-05-09T17:55:50.465Z,101788.16
2017-05-09T17:58:16.565Z,101789.37
2017-05-09T18:00:42.736Z,101787.98
2017-05-09T18:03:08.725Z,101784.48
2017-05-09T18:05:34.879Z,101782.23
2017-05-09T18:08:00.816Z,101786.59
2017-05-09T18:10:26.890Z,101783.66
2017-05-09T18:12:53.491Z,101786.86
2017-05-09T18:15:20.155Z,101777.07
2017-05-09T18:17:46.858Z,101778.89
2017-05-09T18:20:12.694Z,101780.58
2017-05-09T18:22:39.508Z,101774.73
2017-05-09T18:25:05.363Z,101770.91
2017-05-09T18:27:32.067Z,101773.05
2017-05-09T18:29:58.568Z,101765.11
2017-05-09T18:32:24.443Z,101771.35
2017-05-09T18:34:50.638Z,101772.78
2017-05-09T18:37:16.890Z,101768.33
2017-05-09T18:39:42.809Z,101770.58
2017-05-09T18:42:08.708Z,101770.44
2017-05-09T18:44:34.559Z,101770.00
2017-05-09T18:47:00.495Z,101758.83
2017-05-09T18:49:27.120Z,101760.03
2017-05-09T18:51:52.981Z,101759.68
2017-05-09T18:54:18.851Z,101756.73
2017-05-09T18:56:45.222Z,101750.72
2017-05-09T18:59:11.086Z,101752.41
2017-05-09T19:01:36.947Z,101752.10
2017-05-09T19:04:03.585Z,101749.77
2017-05-09T19:06:29.434Z,101752.80
2017-05-09T19:08:55.423Z,101753.67
2017-05-09T19:11:22.031Z,101750.55
2017-05-09T19:13:47.974Z,101751.94
2017-05-09T19:16:13.819Z,101747.47
2017-05-09T19:18:39.671Z,101742.19
2017-05-09T19:21:05.627Z,101743.05
2017-05-09T19:23:31.474Z,101742.62
2017-05-09T19:25:57.360Z,101740.88
2017-05-09T19:28:23.222Z,101738.67
2017-05-09T19:30:49.093Z,101736.03
2017-05-09T19:33:15.089Z,101740.02
2017-05-09T19:35:40.993Z,101744.48
2017-05-09T19:38:07.590Z,101744.05
2017-05-09T19:40:33.479Z,101740.48
2017-05-09T19:42:59.389Z,101744.48
2017-05-09T19:45:25.636Z,101745.39
2017-05-09T19:47:51.535Z,101748.63
2017-05-09T19:50:17.506Z,101750.45
2017-05-09T19:52:43.394Z,101750.92
2017-05-09T19:55:09.328Z,101754.52
2017-05-09T19:57:35.501Z,101755.91
2017-05-09T20:00:01.390Z,101752.83
2017-05-09T20:02:27.234Z,101748.33
2017-05-09T20:04:53.835Z,101741.98
2017-05-09T20:07:19.704Z,101748.80
2017-05-09T20:09:45.636Z,101747.11
2017-05-09T20:12:11.562Z,101749.84
2017-05-09T20:14:37.431Z,101752.05
2017-05-09T20:17:03.297Z,101753.83
2017-05-09T20:19:29.163Z,101752.95
2017-05-09T20:21:55.163Z,101747.71
2017-05-09T20:24:21.065Z,101751.27
2017-05-09T20:26:46.905Z,101750.75
2017-05-09T20:29:12.761Z,101752.09
2017-05-09T20:31:38.612Z,101745.02
2017-05-09T20:34:05.288Z,101745.58
2017-05-09T20:36:31.174Z,101746.34
2017-05-09T20:38:57.194Z,101746.52
2017-05-09T20:41:23.811Z,101742.82
2017-05-09T20:43:49.662Z,101736.91
2017-05-09T20:46:15.603Z,101738.45
2017-05-09T20:48:41.480Z,101739.56
2017-05-09T20:51:07.491Z,101739.34
2017-05-09T20:53:33.354Z,101735.39
2017-05-09T20:55:59.223Z,101734.41
2017-05-09T20:58:25.165Z,101737.64
2017-05-09T21:00:51.019Z,101735.35
2017-05-09T21:03:17.034Z,101730.46
2017-05-09T21:05:43.638Z,101727.94
2017-05-09T21:08:09.513Z,101726.76
2017-05-09T21:10:35.380Z,101720.21
2017-05-09T21:13:01.249Z,101719.58
2017-05-09T21:15:27.211Z,101716.23
2017-05-09T21:17:53.065Z,101710.65
2017-05-09T21:20:18.920Z,101710.84
2017-05-09T21:22:44.872Z,101709.23
2017-05-09T21:25:10.725Z,101709.34
2017-05-09T21:27:36.638Z,101703.31
2017-05-09T21:30:03.975Z,101704.86
2017-05-09T21:32:29.867Z,101701.11
2017-05-09T21:34:56.155Z,101694.56
2017-05-09T21:37:21.964Z,101700.23
2017-05-09T21:39:47.835Z,101691.72
2017-05-09T21:42:13.690Z,101690.73
2017-05-09T21:44:39.582Z,101687.23
2017-05-09T21:47:05.605Z,101686.01
2017-05-09T21:49:31.452Z,101685.61
2017-05-09T21:51:57.326Z,101690.62
2017-05-09T21:54:23.189Z,101691.48
2017-05-09T21:56:49.021Z,101687.15
2017-05-09T21:59:14.960Z,101688.53
2017-05-09T22:01:40.821Z,101687.30
2017-05-09T22:04:06.714Z,101686.04
2017-05-09T22:06:32.618Z,101682.92
2017-05-09T22:08:58.454Z,101674.93
2017-05-09T22:11:24.324Z,101673.63
2017-05-09T22:13:50.230Z,101673.78
2017-05-09T22:16:16.140Z,101667.67
2017-05-09T22:18:41.987Z,101668.27
2017-05-09T22:21:07.936Z,101666.09
2017-05-09T22:23:33.813Z,101658.13
2017-05-09T22:25:59.695Z,101658.17
2017-05-09T22:28:26.328Z,101654.66
2017-05-09T22:30:52.270Z,101656.95
2017-05-09T22:33:18.274Z,101653.40
2017-05-09T22:35:44.083Z,101650.36
2017-05-09T22:38:09.926Z,101646.45
2017-05-09T22:40:35.894Z,101642.01
2017-05-09T22:43:01.770Z,101643.06
2017-05-09T22:45:27.746Z,101643.58
2017-05-09T22:47:53.587Z,101634.79
2017-05-09T22:50:19.451Z,101629.98
2017-05-09T22:52:45.314Z,101640.70
2017-05-09T22:55:11.178Z,101631.83
2017-05-09T22:57:37.095Z,101637.19
2017-05-09T23:00:02.938Z,101630.14
2017-05-09T23:02:28.826Z,101631.08
2017-05-09T23:04:55.424Z,101619.58
2017-05-09T23:07:21.257Z,101619.65
2017-05-09T23:09:47.198Z,101617.95
2017-05-09T23:12:13.039Z,101613.50
2017-05-09T23:14:38.979Z,101616.23
2017-05-09T23:17:04.854Z,101614.92
2017-05-09T23:19:30.729Z,101611.42
2017-05-09T23:21:56.574Z,101611.85
2017-05-09T23:24:22.442Z,101608.81
2017-05-09T23:26:48.377Z,101611.57
2017-05-09T23:29:14.255Z,101603.53
2017-05-09T23:31:40.185Z,101600.89
2017-05-09T23:34:06.825Z,101603.61
2017-05-09T23:36:32.662Z,101600.11
2017-05-09T23:38:58.623Z,101589.91
2017-05-09T23:41:24.500Z,101590.41
2017-05-09T23:43:50.337Z,101588.72
2017-05-09T23:46:16.176Z,101586.00
2017-05-09T23:48:42.027Z,101586.11
2017-05-09T23:51:07.996Z,101579.02
2017-05-09T23:53:33.985Z,101581.34
2017-05-09T23:55:59.901Z,101576.89
2017-05-09T23:58:25.757Z,101576.97
